Time;durP1;ratioP1;P1;durP2;ratioP2;P2;SDS_P1;SDS_P2;PMS_P1;PMS_P2;Temp;Humidity;BMP_temperature;BMP_pressure;BME280_temperature;BME280_humidity;BME280_pressure;Samples;Min_cycle;Max_cycle;Signal;HPM_P1;HPM_P2
2022/03/11 00:00:37;;;;;;;10.10;5.28;;;4.00;48.20;;;;;;4937059;28;20032;-65
2022/03/11 00:03:03;;;;;;;9.32;5.55;;;4.00;48.10;;;;;;4938053;28;20582;-66
2022/03/11 00:05:28;;;;;;;10.48;5.78;;;4.00;48.40;;;;;;4937722;28;20062;-66
2022/03/11 00:07:55;;;;;;;9.63;5.88;;;4.00;48.50;;;;;;4938839;28;20059;-66
2022/03/11 00:10:21;;;;;;;8.70;5.50;;;3.90;48.50;;;;;;4940424;28;20114;-66
2022/03/11 00:12:47;;;;;;;11.55;6.30;;;3.90;48.60;;;;;;4934549;28;20643;-64
2022/03/11 00:15:13;;;;;;;11.52;6.28;;;3.90;48.70;;;;;;4937334;28;20053;-66
2022/03/11 00:17:39;;;;;;;10.10;5.93;;;3.80;48.80;;;;;;4936887;28;20035;-66
2022/03/11 00:20:06;;;;;;;14.10;5.93;;;3.80;48.80;;;;;;4940116;28;20036;-66
2022/03/11 00:22:31;;;;;;;10.15;6.40;;;3.80;49.00;;;;;;4940384;28;20035;-66
2022/03/11 00:24:57;;;;;;;9.23;5.78;;;3.80;49.00;;;;;;4939955;28;20566;-66
2022/03/11 00:27:22;;;;;;;10.40;6.18;;;3.80;49.10;;;;;;4940182;28;20123;-66
2022/03/11 00:29:48;;;;;;;11.82;6.38;;;3.80;49.20;;;;;;4936979;28;20130;-66
2022/03/11 00:32:14;;;;;;;9.32;5.93;;;3.80;49.20;;;;;;4937215;28;20613;-66
2022/03/11 00:34:40;;;;;;;11.40;6.80;;;3.70;49.30;;;;;;4938638;28;20047;-66
2022/03/11 00:37:05;;;;;;;13.55;6.78;;;3.70;49.40;;;;;;4938190;28;20023;-65
2022/03/11 00:39:31;;;;;;;12.02;6.95;;;3.70;49.50;;;;;;4933964;28;20501;-65
2022/03/11 00:41:57;;;;;;;10.82;6.70;;;3.70;49.60;;;;;;4934328;28;20043;-66
2022/03/11 00:44:22;;;;;;;11.43;6.75;;;3.70;49.70;;;;;;4939341;28;20135;-66
2022/03/11 00:46:48;;;;;;;10.82;6.75;;;3.70;49.80;;;;;;4936867;28;20040;-67
2022/03/11 00:49:14;;;;;;;13.48;7.13;;;3.70;49.90;;;;;;4936835;28;20050;-66
2022/03/11 00:51:40;;;;;;;13.68;7.53;;;3.70;50.10;;;;;;4936402;28;20031;-64
2022/03/11 00:54:06;;;;;;;14.77;8.43;;;3.60;50.20;;;;;;4937092;28;20054;-66
2022/03/11 00:56:31;;;;;;;14.20;8.07;;;3.60;50.30;;;;;;4932486;28;20640;-66
2022/03/11 00:58:57;;;;;;;14.30;8.45;;;3.60;50.50;;;;;;4935889;28;20039;-66
2022/03/11 01:01:23;;;;;;;16.25;8.45;;;3.60;50.70;;;;;;4938985;28;20039;-66
2022/03/11 01:03:49;;;;;;;15.07;8.38;;;3.60;50.80;;;;;;4935997;28;20043;-65
2022/03/11 01:06:15;;;;;;;14.93;8.25;;;3.60;51.10;;;;;;4936608;28;20830;-66
2022/03/11 01:08:41;;;;;;;14.60;8.27;;;3.50;51.00;;;;;;4933635;28;20031;-66
2022/03/11 01:11:11;;;;;;;14.93;8.70;;;3.50;51.10;;;;;;4935419;28;20115;-66
2022/03/11 01:13:37;;;;;;;12.85;8.38;;;3.50;51.10;;;;;;4937358;28;20040;-66
2022/03/11 01:16:03;;;;;;;16.25;9.40;;;3.50;51.30;;;;;;4936630;28;20035;-66
2022/03/11 01:18:29;;;;;;;16.80;9.25;;;3.50;51.40;;;;;;4937867;28;20027;-66
2022/03/11 01:20:56;;;;;;;16.25;9.27;;;3.40;51.40;;;;;;4936776;28;20115;-66
2022/03/11 01:23:21;;;;;;;18.05;9.60;;;3.40;51.50;;;;;;4935034;28;20031;-66
2022/03/11 01:25:47;;;;;;;17.98;9.88;;;3.40;52.00;;;;;;4939583;28;20351;-65
2022/03/11 01:28:13;;;;;;;17.63;9.90;;;3.40;52.20;;;;;;4937287;28;20043;-65
2022/03/11 01:30:40;;;;;;;16.50;9.68;;;3.30;52.00;;;;;;4935902;28;20245;-66
2022/03/11 01:33:05;;;;;;;18.83;10.35;;;3.30;52.10;;;;;;4935716;28;20031;-66
2022/03/11 01:35:31;;;;;;;16.90;9.88;;;3.30;52.20;;;;;;4938134;28;20031;-66
2022/03/11 01:37:57;;;;;;;16.73;10.13;;;3.30;52.30;;;;;;4937346;28;20031;-65
2022/03/11 01:40:23;;;;;;;23.00;11.15;;;3.20;52.40;;;;;;4937027;28;20126;-66
2022/03/11 01:42:49;;;;;;;18.10;10.75;;;3.20;52.40;;;;;;4934703;28;20035;-66
2022/03/11 01:45:15;;;;;;;18.13;10.65;;;3.20;52.60;;;;;;4936952;28;20036;-66
2022/03/11 01:47:40;;;;;;;17.98;10.52;;;3.20;52.70;;;;;;4936746;28;20079;-66
2022/03/11 01:50:06;;;;;;;23.73;11.80;;;3.20;52.70;;;;;;4935532;28;20034;-66
2022/03/11 01:52:33;;;;;;;18.42;11.07;;;3.10;52.70;;;;;;4941395;28;20494;-65
2022/03/11 01:54:58;;;;;;;20.08;11.48;;;3.10;52.90;;;;;;4934356;28;20063;-64
2022/03/11 01:57:24;;;;;;;21.70;12.02;;;3.10;53.00;;;;;;4933968;28;20567;-65
2022/03/11 01:59:50;;;;;;;20.20;11.75;;;3.10;53.20;;;;;;4935216;28;20036;-66
2022/03/11 02:02:17;;;;;;;22.63;12.52;;;3.10;53.20;;;;;;4944078;28;20047;-66
2022/03/11 02:04:43;;;;;;;20.67;11.57;;;3.10;53.30;;;;;;4936563;28;20027;-66
2022/03/11 02:07:10;;;;;;;22.63;12.75;;;3.10;53.30;;;;;;4941290;28;20464;-66
2022/03/11 02:09:36;;;;;;;21.45;12.60;;;3.10;53.40;;;;;;4939537;28;20034;-66
2022/03/11 02:12:03;;;;;;;22.73;12.05;;;3.00;53.40;;;;;;4933232;28;20043;-66
2022/03/11 02:14:28;;;;;;;22.85;12.75;;;3.00;53.50;;;;;;4936206;28;20042;-66
2022/03/11 02:16:54;;;;;;;23.75;12.60;;;3.00;53.50;;;;;;4938472;28;20039;-66
2022/03/11 02:19:20;;;;;;;24.73;12.95;;;3.00;53.50;;;;;;4935616;28;20043;-66
2022/03/11 02:21:47;;;;;;;23.40;13.27;;;3.00;53.60;;;;;;4935217;28;20036;-66
2022/03/11 02:24:17;;;;;;;22.75;13.38;;;3.00;53.80;;;;;;4937058;28;20418;-66
2022/03/11 02:26:42;;;;;;;22.75;12.77;;;2.90;53.70;;;;;;4936230;28;21237;-66
2022/03/11 02:29:08;;;;;;;23.70;13.88;;;2.90;53.70;;;;;;4935835;28;20424;-66
2022/03/11 02:31:34;;;;;;;27.48;14.23;;;2.90;53.90;;;;;;4939054;28;20039;-65
2022/03/11 02:34:02;;;;;;;26.02;14.32;;;2.90;53.90;;;;;;4941120;28;20050;-66
2022/03/11 02:36:28;;;;;;;23.92;13.98;;;2.90;54.00;;;;;;4940982;28;20023;-66
2022/03/11 02:38:54;;;;;;;23.95;14.05;;;2.80;53.90;;;;;;4938644;28;20039;-65
2022/03/11 02:41:20;;;;;;;24.55;14.10;;;2.80;54.00;;;;;;4938467;28;20039;-66
2022/03/11 02:43:46;;;;;;;24.63;13.68;;;2.80;54.10;;;;;;4938706;28;20031;-66
2022/03/11 02:46:15;;;;;;;29.20;15.20;;;2.80;54.10;;;;;;4940942;28;20094;-66
2022/03/11 02:48:41;;;;;;;26.17;14.50;;;2.80;54.20;;;;;;4941920;28;20078;-66
2022/03/11 02:51:07;;;;;;;24.08;14.10;;;2.80;54.40;;;;;;4939622;28;20430;-65
2022/03/11 02:53:37;;;;;;;27.35;15.20;;;2.80;54.30;;;;;;4939431;28;20111;-66
2022/03/11 02:56:03;;;;;;;26.83;14.02;;;2.70;54.30;;;;;;4925604;28;20191;-66
2022/03/11 02:58:29;;;;;;;26.30;13.60;;;2.70;54.40;;;;;;4934716;28;20511;-66
2022/03/11 03:00:54;;;;;;;25.80;15.05;;;2.70;54.40;;;;;;4940374;28;20396;-66
2022/03/11 03:03:20;;;;;;;23.98;13.50;;;2.70;54.40;;;;;;4938343;28;20336;-66
2022/03/11 03:05:46;;;;;;;25.85;14.50;;;2.70;54.50;;;;;;4941002;28;20044;-66
2022/03/11 03:08:11;;;;;;;24.60;14.30;;;2.60;55.10;;;;;;4939765;28;20035;-66
2022/03/11 03:10:37;;;;;;;24.30;14.38;;;2.60;54.40;;;;;;4938001;28;20115;-65
2022/03/11 03:13:03;;;;;;;26.00;14.75;;;2.60;54.40;;;;;;4939247;28;20054;-65
2022/03/11 03:15:29;;;;;;;26.20;15.52;;;2.60;54.50;;;;;;4939089;28;20032;-66
2022/03/11 03:17:54;;;;;;;28.13;15.00;;;2.60;54.50;;;;;;4938442;28;20027;-65
2022/03/11 03:20:20;;;;;;;29.60;15.80;;;2.60;54.50;;;;;;4937266;28;20031;-65
2022/03/11 03:22:45;;;;;;;29.23;15.52;;;2.50;54.50;;;;;;4938804;28;20035;-65
2022/03/11 03:25:11;;;;;;;25.95;15.43;;;2.50;54.50;;;;;;4936823;28;20039;-66
2022/03/11 03:27:37;;;;;;;30.42;15.90;;;2.50;54.70;;;;;;4941746;28;20028;-65
2022/03/11 03:30:06;;;;;;;28.10;15.40;;;2.40;54.80;;;;;;4937999;28;20035;-65
2022/03/11 03:32:32;;;;;;;26.63;14.68;;;2.40;55.10;;;;;;4938078;28;20099;-65
2022/03/11 03:34:58;;;;;;;25.90;14.13;;;2.30;54.90;;;;;;4939688;28;20461;-65
2022/03/11 03:37:24;;;;;;;28.25;15.25;;;2.30;54.80;;;;;;4940490;28;20507;-65
2022/03/11 03:39:49;;;;;;;24.45;14.48;;;2.30;54.90;;;;;;4936785;28;20098;-65
2022/03/11 03:42:15;;;;;;;24.63;14.45;;;2.30;54.90;;;;;;4938504;28;20059;-65
2022/03/11 03:44:40;;;;;;;25.67;14.65;;;2.20;54.80;;;;;;4938322;28;20049;-66
2022/03/11 03:47:06;;;;;;;30.08;16.00;;;2.20;54.80;;;;;;4938056;28;20036;-64
2022/03/11 03:49:34;;;;;;;27.63;14.88;;;2.20;54.80;;;;;;4937058;28;20456;-65
2022/03/11 03:52:00;;;;;;;24.40;14.82;;;2.20;54.90;;;;;;4939711;28;20438;-65
2022/03/11 03:54:25;;;;;;;25.77;14.05;;;2.20;54.90;;;;;;4937750;28;20510;-65
2022/03/11 03:56:51;;;;;;;28.02;15.70;;;2.20;54.80;;;;;;4938955;28;20073;-65
2022/03/11 03:59:16;;;;;;;26.73;14.68;;;2.20;54.90;;;;;;4936176;28;20051;-65
2022/03/11 04:01:43;;;;;;;28.67;15.35;;;2.10;54.90;;;;;;4938998;28;20038;-64
2022/03/11 04:04:11;;;;;;;27.70;14.75;;;2.10;55.60;;;;;;4937946;28;20070;-65
2022/03/11 04:06:38;;;;;;;26.73;14.50;;;2.00;54.90;;;;;;4937800;28;20036;-65
2022/03/11 04:09:06;;;;;;;29.38;15.27;;;2.00;54.90;;;;;;4939400;28;20511;-66
2022/03/11 04:11:33;;;;;;;28.55;14.95;;;2.00;54.90;;;;;;4938834;28;20130;-63
2022/03/11 04:13:59;;;;;;;28.45;15.02;;;1.90;54.80;;;;;;4935313;28;20163;-66
2022/03/11 04:16:25;;;;;;;24.95;14.05;;;1.90;55.00;;;;;;4938235;28;20126;-65
2022/03/11 04:18:51;;;;;;;26.63;14.68;;;1.90;55.00;;;;;;4944816;28;20432;-65
2022/03/11 04:21:18;;;;;;;26.83;14.95;;;1.90;55.10;;;;;;4938861;28;20487;-66
2022/03/11 04:23:45;;;;;;;25.48;14.05;;;1.80;55.10;;;;;;4939039;28;20039;-65
2022/03/11 04:26:10;;;;;;;25.48;14.35;;;1.80;55.10;;;;;;4937116;28;20043;-65
2022/03/11 04:28:37;;;;;;;26.52;14.45;;;1.70;55.00;;;;;;4937250;28;20043;-66
2022/03/11 04:31:12;;;;;;;23.83;14.18;;;1.70;55.00;;;;;;4939004;28;20055;-65
2022/03/11 04:33:40;;;;;;;24.45;13.50;;;1.70;55.50;;;;;;4936092;28;20046;-65
2022/03/11 04:36:06;;;;;;;23.13;13.25;;;1.60;55.00;;;;;;4939310;28;20525;-65
2022/03/11 04:38:32;;;;;;;21.95;12.48;;;1.60;55.00;;;;;;4936982;28;20115;-64
2022/03/11 04:40:59;;;;;;;24.65;12.85;;;1.50;55.00;;;;;;4936840;28;20019;-65
2022/03/11 04:43:26;;;;;;;23.85;12.65;;;1.50;55.00;;;;;;4936996;28;20032;-65
2022/03/11 04:45:52;;;;;;;26.13;13.25;;;1.50;55.20;;;;;;4936838;28;20103;-65
2022/03/11 04:48:18;;;;;;;26.45;12.98;;;1.40;55.10;;;;;;4938336;28;20046;-66
2022/03/11 04:50:44;;;;;;;21.90;12.10;;;1.40;56.10;;;;;;4935254;28;20123;-65
2022/03/11 04:53:10;;;;;;;21.25;11.77;;;1.30;55.20;;;;;;4936485;28;20035;-65
2022/03/11 04:55:36;;;;;;;19.83;11.07;;;1.20;55.10;;;;;;4935582;28;20397;-64
2022/03/11 04:58:02;;;;;;;20.67;11.40;;;1.30;55.20;;;;;;4933961;28;20027;-65
2022/03/11 05:00:28;;;;;;;24.17;11.40;;;1.20;55.10;;;;;;4935717;28;20031;-65
2022/03/11 05:02:54;;;;;;;24.95;12.02;;;1.20;55.10;;;;;;4936641;28;20980;-65
2022/03/11 05:05:21;;;;;;;21.27;11.65;;;1.10;55.10;;;;;;4938833;28;20035;-65
2022/03/11 05:07:47;;;;;;;21.77;11.90;;;1.10;54.90;;;;;;4938650;28;20446;-66
2022/03/11 05:10:16;;;;;;;20.33;11.35;;;1.10;55.30;;;;;;4937243;28;20082;-65
2022/03/11 05:12:42;;;;;;;21.10;11.35;;;1.00;55.00;;;;;;4933406;28;20131;-66
2022/03/11 05:15:09;;;;;;;23.38;12.13;;;1.00;55.00;;;;;;4934610;28;20046;-65
2022/03/11 05:17:36;;;;;;;21.23;10.90;;;1.00;55.00;;;;;;4936594;28;20058;-66
2022/03/11 05:20:03;;;;;;;18.55;10.93;;;0.90;54.90;;;;;;4936200;28;20094;-66
2022/03/11 05:22:30;;;;;;;18.35;10.40;;;0.90;55.00;;;;;;4937410;28;20134;-65
2022/03/11 05:24:55;;;;;;;23.98;10.82;;;0.90;55.10;;;;;;4934676;28;21949;-63
2022/03/11 05:27:21;;;;;;;18.50;10.90;;;0.90;55.00;;;;;;4934801;28;20134;-66
2022/03/11 05:29:47;;;;;;;22.50;11.38;;;0.90;54.90;;;;;;4935433;28;20063;-65
2022/03/11 05:32:14;;;;;;;20.00;10.38;;;0.80;55.00;;;;;;4938105;28;20376;-64
2022/03/11 05:34:42;;;;;;;22.33;10.70;;;0.80;54.90;;;;;;4936284;28;20063;-65
2022/03/11 05:37:08;;;;;;;21.40;10.82;;;0.80;54.80;;;;;;4939334;28;20404;-65
2022/03/11 05:39:33;;;;;;;18.65;11.10;;;0.80;54.80;;;;;;4936272;28;20042;-66
2022/03/11 05:41:59;;;;;;;19.92;10.40;;;0.80;54.80;;;;;;4937377;28;20035;-65
2022/03/11 05:44:25;;;;;;;19.90;11.18;;;0.80;54.80;;;;;;4937312;28;20050;-65
2022/03/11 05:46:55;;;;;;;21.40;11.23;;;0.80;54.80;;;;;;4937610;28;20039;-65
2022/03/11 05:49:22;;;;;;;22.48;11.38;;;0.80;54.80;;;;;;4936360;28;20031;-65
2022/03/11 05:51:47;;;;;;;22.25;10.32;;;0.70;54.80;;;;;;4939167;28;20089;-65
2022/03/11 05:54:13;;;;;;;19.48;9.70;;;0.70;54.70;;;;;;4936510;28;20150;-65
2022/03/11 05:56:39;;;;;;;21.35;10.50;;;0.70;55.40;;;;;;4935808;28;20043;-65
2022/03/11 05:59:05;;;;;;;21.58;10.80;;;0.70;54.80;;;;;;4938294;28;20038;-65
2022/03/11 06:01:32;;;;;;;21.33;10.50;;;0.60;54.80;;;;;;4936652;28;20039;-65
2022/03/11 06:03:57;;;;;;;18.25;10.27;;;0.60;54.80;;;;;;4935629;28;20035;-65
2022/03/11 06:06:23;;;;;;;23.08;11.25;;;0.70;54.90;;;;;;4936340;28;20039;-65
2022/03/11 06:08:49;;;;;;;20.67;10.32;;;0.70;54.90;;;;;;4937312;28;20039;-65
2022/03/11 06:11:14;;;;;;;19.40;10.60;;;0.70;55.00;;;;;;4934033;28;20054;-65
2022/03/11 06:13:40;;;;;;;19.48;10.18;;;0.60;54.80;;;;;;4937586;28;20093;-66
2022/03/11 06:16:06;;;;;;;19.95;10.65;;;0.60;54.90;;;;;;4935027;28;20260;-65
2022/03/11 06:18:31;;;;;;;19.40;10.20;;;0.60;54.90;;;;;;4936846;28;20037;-65
2022/03/11 06:20:57;;;;;;;21.83;10.55;;;0.70;54.90;;;;;;4937224;28;20091;-65
2022/03/11 06:23:24;;;;;;;23.30;11.02;;;0.70;54.80;;;;;;4937820;28;20116;-65
2022/03/11 06:25:50;;;;;;;22.55;10.07;;;0.70;54.90;;;;;;4937290;28;20032;-67
2022/03/11 06:28:16;;;;;;;21.02;11.10;;;0.70;54.80;;;;;;4936353;28;20059;-66
2022/03/11 06:30:42;;;;;;;19.77;10.70;;;0.70;54.80;;;;;;4937029;28;20027;-67
2022/03/11 06:33:09;;;;;;;19.33;10.50;;;0.70;54.70;;;;;;4939039;28;20039;-67
2022/03/11 06:35:35;;;;;;;20.23;10.25;;;0.70;54.70;;;;;;4935520;28;20042;-67
2022/03/11 06:38:00;;;;;;;23.63;10.27;;;0.70;54.70;;;;;;4936867;28;20047;-67
2022/03/11 06:40:26;;;;;;;21.98;11.10;;;0.70;54.60;;;;;;4936933;28;20226;-67
2022/03/11 06:42:53;;;;;;;23.98;10.95;;;0.70;54.70;;;;;;4937648;28;20046;-67
2022/03/11 06:45:19;;;;;;;19.80;10.00;;;0.70;54.70;;;;;;4935317;28;20059;-68
2022/03/11 06:47:46;;;;;;;20.05;9.68;;;0.70;54.80;;;;;;4936110;28;20637;-65
2022/03/11 06:50:12;;;;;;;19.63;9.73;;;0.70;54.60;;;;;;4937341;28;20070;-65
2022/03/11 06:52:38;;;;;;;19.00;9.23;;;0.70;54.60;;;;;;4936494;28;20043;-65
2022/03/11 06:55:05;;;;;;;18.63;9.85;;;0.80;54.80;;;;;;4937264;28;20043;-65
2022/03/11 06:57:31;;;;;;;16.75;8.95;;;0.80;54.90;;;;;;4936723;28;20036;-64
2022/03/11 06:59:56;;;;;;;16.25;8.60;;;0.80;54.70;;;;;;4936472;28;20114;-67
2022/03/11 07:02:22;;;;;;;17.60;8.55;;;0.80;54.50;;;;;;4936804;28;20492;-67
2022/03/11 07:04:48;;;;;;;18.55;8.60;;;0.90;54.50;;;;;;4937316;28;20512;-65
2022/03/11 07:07:13;;;;;;;16.92;7.80;;;0.90;54.40;;;;;;4936092;28;20039;-65
2022/03/11 07:09:39;;;;;;;15.85;7.95;;;0.90;54.30;;;;;;4934715;28;20059;-65
2022/03/11 07:12:05;;;;;;;16.50;8.15;;;0.90;54.20;;;;;;4934525;28;20176;-65
2022/03/11 07:14:35;;;;;;;13.60;7.45;;;1.00;54.30;;;;;;4935992;28;20106;-65
2022/03/11 07:17:10;;;;;;;14.90;7.82;;;1.00;54.20;;;;;;4939191;28;20514;-65
2022/03/11 07:19:36;;;;;;;15.55;7.43;;;1.00;54.20;;;;;;4942829;28;20776;-65
2022/03/11 07:22:04;;;;;;;17.30;7.47;;;1.10;54.00;;;;;;4938510;28;20035;-65
2022/03/11 07:24:30;;;;;;;14.00;7.07;;;1.10;53.90;;;;;;4939200;28;20039;-65
2022/03/11 07:26:56;;;;;;;13.38;7.35;;;1.10;54.10;;;;;;4940370;28;20491;-65
2022/03/11 07:29:22;;;;;;;12.23;6.30;;;1.20;54.00;;;;;;4939870;28;20044;-65
2022/03/11 07:31:47;;;;;;;13.52;7.18;;;1.20;53.90;;;;;;4940090;28;20032;-65
2022/03/11 07:34:13;;;;;;;12.20;7.00;;;1.20;53.60;;;;;;4939820;28;20495;-65
2022/03/11 07:36:39;;;;;;;11.63;6.30;;;1.30;53.50;;;;;;4939428;28;20036;-64
2022/03/11 07:39:06;;;;;;;12.40;6.63;;;1.30;53.50;;;;;;4939662;28;20038;-64
2022/03/11 07:41:32;;;;;;;11.90;6.07;;;1.30;53.50;;;;;;4940144;28;20465;-65
2022/03/11 07:43:58;;;;;;;10.82;6.05;;;1.30;53.40;;;;;;4939984;28;20114;-65
2022/03/11 07:46:25;;;;;;;15.90;6.60;;;1.40;53.30;;;;;;4937375;28;20504;-64
2022/03/11 07:48:50;;;;;;;9.82;5.65;;;1.40;53.20;;;;;;4939102;28;20042;-65
2022/03/11 07:51:17;;;;;;;10.43;5.85;;;1.50;53.20;;;;;;4938791;28;20036;-65
2022/03/11 07:53:43;;;;;;;11.20;6.35;;;1.50;53.10;;;;;;4938868;28;20063;-65
2022/03/11 07:56:10;;;;;;;12.57;6.10;;;1.60;53.10;;;;;;4938221;28;20093;-65
2022/03/11 07:58:37;;;;;;;13.65;6.20;;;1.60;53.10;;;;;;4938314;28;20035;-66
2022/03/11 08:01:04;;;;;;;12.15;6.07;;;1.70;53.10;;;;;;4938054;28;20031;-65
2022/03/11 08:03:30;;;;;;;11.88;6.00;;;1.70;53.00;;;;;;4939380;28;20040;-66
2022/03/11 08:05:56;;;;;;;11.43;6.00;;;1.80;52.90;;;;;;4939569;28;20027;-66
2022/03/11 08:08:22;;;;;;;12.93;5.97;;;1.90;53.00;;;;;;4937254;28;20028;-65
2022/03/11 08:10:48;;;;;;;10.20;6.40;;;1.90;52.90;;;;;;4938000;28;20514;-65
2022/03/11 08:13:14;;;;;;;18.67;7.03;;;2.00;52.70;;;;;;4939279;28;20382;-65
2022/03/11 08:15:40;;;;;;;11.20;6.43;;;2.00;52.70;;;;;;4938532;28;20130;-65
2022/03/11 08:18:06;;;;;;;12.05;5.90;;;2.10;52.50;;;;;;4940328;28;20151;-65
2022/03/11 08:20:31;;;;;;;8.80;5.53;;;2.10;52.60;;;;;;4936085;28;20035;-65
2022/03/11 08:22:57;;;;;;;12.02;6.43;;;2.10;52.60;;;;;;4939916;28;20130;-65
2022/03/11 08:25:26;;;;;;;14.73;6.78;;;2.20;52.60;;;;;;4939021;28;20043;-65
2022/03/11 08:27:56;;;;;;;12.80;6.32;;;2.20;52.50;;;;;;4939773;28;20058;-65
2022/03/11 08:30:24;;;;;;;11.25;6.47;;;2.30;52.50;;;;;;4938238;28;20053;-64
2022/03/11 08:32:51;;;;;;;18.58;6.60;;;2.40;52.50;;;;;;4939226;28;20047;-65
2022/03/11 08:35:17;;;;;;;11.73;6.40;;;2.40;52.20;;;;;;4938086;28;20534;-63
2022/03/11 08:37:43;;;;;;;10.70;5.90;;;2.50;52.20;;;;;;4937731;28;20095;-65
2022/03/11 08:40:10;;;;;;;12.23;6.13;;;2.60;52.30;;;;;;4938151;28;20036;-65
2022/03/11 08:42:36;;;;;;;12.93;6.57;;;2.60;52.30;;;;;;4938575;28;20527;-65
2022/03/11 08:45:08;;;;;;;12.48;7.38;;;2.70;52.30;;;;;;4938645;28;20036;-65
2022/03/11 08:47:34;;;;;;;15.43;6.97;;;2.80;52.40;;;;;;4938690;28;20046;-65
2022/03/11 08:50:02;;;;;;;13.75;6.43;;;2.80;52.30;;;;;;4939424;28;20239;-65
2022/03/11 08:52:29;;;;;;;10.73;6.38;;;3.00;52.90;;;;;;4937609;28;20042;-64
2022/03/11 08:54:55;;;;;;;13.15;6.53;;;3.00;52.00;;;;;;4937415;28;20040;-64
2022/03/11 08:57:20;;;;;;;10.13;5.95;;;3.10;51.90;;;;;;4938306;28;20036;-65
2022/03/11 08:59:46;;;;;;;13.35;6.75;;;3.20;51.70;;;;;;4937917;28;20035;-65
2022/03/11 09:02:15;;;;;;;10.05;6.00;;;3.20;51.60;;;;;;4935516;28;20120;-65
2022/03/11 09:04:41;;;;;;;12.02;6.13;;;3.30;51.60;;;;;;4937139;28;20075;-64
2022/03/11 09:07:07;;;;;;;13.27;5.95;;;3.30;51.50;;;;;;4942583;28;20032;-65
2022/03/11 09:09:32;;;;;;;16.13;6.07;;;3.40;51.50;;;;;;4937156;28;20054;-64
2022/03/11 09:11:59;;;;;;;12.90;6.22;;;3.50;51.60;;;;;;4937055;28;20031;-65
2022/03/11 09:14:25;;;;;;;10.63;6.45;;;3.60;51.50;;;;;;4943774;28;20039;-64
2022/03/11 09:16:50;;;;;;;11.88;6.57;;;3.60;51.50;;;;;;4936461;28;20043;-65
2022/03/11 09:19:16;;;;;;;16.88;6.65;;;3.70;51.50;;;;;;4937579;28;20119;-65
2022/03/11 09:21:42;;;;;;;9.73;6.13;;;3.80;51.40;;;;;;4936706;28;20031;-65
2022/03/11 09:24:07;;;;;;;13.05;6.53;;;3.90;51.20;;;;;;4938086;28;20031;-65
2022/03/11 09:26:33;;;;;;;12.15;6.43;;;3.90;51.00;;;;;;4937888;28;20409;-65
2022/03/11 09:28:59;;;;;;;11.23;6.03;;;4.00;50.90;;;;;;4936341;28;20082;-64
2022/03/11 09:31:24;;;;;;;11.68;6.43;;;4.00;50.90;;;;;;4943896;28;20130;-62
2022/03/11 09:33:50;;;;;;;12.60;6.90;;;4.10;50.90;;;;;;4939449;28;20123;-65
2022/03/11 09:36:16;;;;;;;13.30;6.55;;;4.10;50.90;;;;;;4935768;28;20031;-64
2022/03/11 09:38:41;;;;;;;12.25;6.63;;;4.20;51.00;;;;;;4935645;28;20039;-65
2022/03/11 09:41:07;;;;;;;13.40;6.68;;;4.30;50.90;;;;;;4938207;28;20097;-64
2022/03/11 09:43:35;;;;;;;10.55;6.45;;;4.40;50.90;;;;;;4938313;28;20082;-64
2022/03/11 09:46:00;;;;;;;12.50;6.57;;;4.40;50.80;;;;;;4938414;28;20114;-65
2022/03/11 09:48:26;;;;;;;10.32;6.68;;;4.50;50.80;;;;;;4942002;28;20135;-64
2022/03/11 09:50:52;;;;;;;9.65;6.25;;;4.60;50.90;;;;;;4938493;28;20043;-65
2022/03/11 09:53:18;;;;;;;15.52;6.82;;;4.70;50.90;;;;;;4941198;28;20038;-65
2022/03/11 09:55:45;;;;;;;12.35;7.40;;;4.80;50.80;;;;;;4937501;28;20134;-65
2022/03/11 09:58:11;;;;;;;12.70;7.10;;;4.90;50.70;;;;;;4937372;28;21624;-64
2022/03/11 10:00:37;;;;;;;11.40;6.43;;;5.00;50.50;;;;;;4936501;28;20094;-64
2022/03/11 10:03:04;;;;;;;11.80;6.55;;;5.10;50.50;;;;;;4937823;28;20066;-65
2022/03/11 10:05:46;;;;;;;15.68;7.28;;;5.20;50.50;;;;;;4938204;28;20499;-64
2022/03/11 10:08:11;;;;;;;9.55;6.43;;;5.30;50.30;;;;;;4936288;28;20125;-65
2022/03/11 10:10:37;;;;;;;12.48;6.63;;;5.30;50.20;;;;;;4935612;28;20452;-65
2022/03/11 10:13:03;;;;;;;10.68;6.80;;;5.50;50.20;;;;;;4937301;28;20043;-65
2022/03/11 10:15:29;;;;;;;19.08;7.43;;;5.60;50.10;;;;;;4937582;28;20055;-66
2022/03/11 10:17:56;;;;;;;13.80;6.50;;;5.70;50.10;;;;;;4939609;28;20043;-66
2022/03/11 10:20:22;;;;;;;12.23;7.38;;;5.70;49.90;;;;;;4938274;28;20042;-66
2022/03/11 10:22:48;;;;;;;11.65;6.90;;;5.80;49.70;;;;;;4936186;28;20040;-66
2022/03/11 10:25:23;;;;;;;11.60;6.68;;;5.90;49.60;;;;;;4937799;28;20035;-66
2022/03/11 10:27:53;;;;;;;13.68;7.72;;;6.00;49.30;;;;;;4938183;28;20035;-66
2022/03/11 10:30:19;;;;;;;12.15;6.97;;;6.00;49.00;;;;;;4938083;28;21009;-65
2022/03/11 10:32:52;;;;;;;14.23;7.20;;;6.10;49.30;;;;;;4936328;28;20451;-66
2022/03/11 10:35:21;;;;;;;10.77;6.35;;;6.20;49.20;;;;;;4938856;28;20147;-65
2022/03/11 10:38:02;;;;;;;10.48;7.05;;;6.30;49.30;;;;;;4937662;28;20406;-65
2022/03/11 10:40:29;;;;;;;14.70;7.30;;;6.40;49.00;;;;;;4935322;28;20106;-64
2022/03/11 10:43:17;;;;;;;12.93;7.07;;;6.50;49.00;;;;;;4938834;28;20122;-66
2022/03/11 10:45:51;;;;;;;13.65;7.30;;;6.60;48.40;;;;;;4937493;28;20488;-66
2022/03/11 10:48:19;;;;;;;18.40;7.25;;;6.70;48.40;;;;;;4935945;28;20036;-65
2022/03/11 10:50:45;;;;;;;12.82;7.32;;;6.80;48.80;;;;;;4939345;28;20041;-65
2022/03/11 10:53:12;;;;;;;11.18;6.43;;;6.80;48.70;;;;;;4939513;28;20158;-66
2022/03/11 10:55:41;;;;;;;11.13;7.13;;;6.90;48.70;;;;;;4941242;28;20518;-66
2022/03/11 10:58:07;;;;;;;13.40;7.28;;;7.00;48.60;;;;;;4940913;28;20039;-66
2022/03/11 11:00:42;;;;;;;10.55;7.18;;;7.10;48.50;;;;;;4938930;28;20103;-66
2022/03/11 11:03:09;;;;;;;13.85;7.40;;;7.20;48.30;;;;;;4942029;28;20530;-66
2022/03/11 11:05:36;;;;;;;14.73;7.28;;;7.20;48.20;;;;;;4940775;28;20488;-66
2022/03/11 11:08:04;;;;;;;12.85;7.13;;;7.30;48.50;;;;;;4945737;28;20039;-66
2022/03/11 11:10:33;;;;;;;26.02;7.70;;;7.50;48.40;;;;;;4937777;28;20040;-65
2022/03/11 11:12:58;;;;;;;14.60;8.05;;;7.50;49.00;;;;;;4938603;28;20034;-66
2022/03/11 11:15:24;;;;;;;14.48;7.50;;;7.60;47.20;;;;;;4942616;28;20051;-66
2022/03/11 11:17:51;;;;;;;12.60;7.13;;;7.70;47.80;;;;;;4940691;28;20036;-66
2022/03/11 11:20:39;;;;;;;16.35;7.80;;;7.80;48.00;;;;;;4938263;28;20057;-64
2022/03/11 11:23:06;;;;;;;12.48;6.95;;;7.90;47.80;;;;;;4939802;28;20061;-66
2022/03/11 11:25:36;;;;;;;17.13;7.93;;;8.00;47.90;;;;;;4939539;28;20035;-66
2022/03/11 11:28:07;;;;;;;12.48;7.25;;;8.20;47.00;;;;;;4940153;28;20042;-66
2022/03/11 11:30:33;;;;;;;13.32;8.30;;;8.30;47.40;;;;;;4939697;28;20415;-65
2022/03/11 11:33:00;;;;;;;16.65;8.40;;;8.40;47.00;;;;;;4941031;28;20359;-64
2022/03/11 11:35:32;;;;;;;13.30;7.45;;;8.50;47.00;;;;;;4940810;28;20043;-66
2022/03/11 11:38:03;;;;;;;11.60;7.55;;;8.60;47.10;;;;;;4940627;28;20507;-66
2022/03/11 11:40:35;;;;;;;13.55;7.88;;;8.70;47.10;;;;;;4938971;28;20072;-66
2022/03/11 11:43:25;;;;;;;9.45;6.53;;;8.80;47.10;;;;;;4941160;28;20511;-65
2022/03/11 11:45:54;;;;;;;16.35;8.40;;;8.90;46.60;;;;;;4940357;28;20764;-65
2022/03/11 11:48:35;;;;;;;13.40;7.35;;;9.00;46.60;;;;;;4940246;28;20031;-66
2022/03/11 11:51:02;;;;;;;12.35;7.40;;;9.10;46.40;;;;;;4940451;28;20491;-65
2022/03/11 11:53:34;;;;;;;11.82;7.13;;;9.20;46.40;;;;;;4938710;28;20202;-66
2022/03/11 11:56:00;;;;;;;11.90;7.40;;;9.30;46.10;;;;;;4938911;28;20039;-65
2022/03/11 11:58:30;;;;;;;10.25;7.45;;;9.30;46.20;;;;;;4939604;28;20035;-65
2022/03/11 12:00:57;;;;;;;13.50;7.45;;;9.40;45.80;;;;;;4938157;28;20551;-65
2022/03/11 12:03:47;;;;;;;12.70;8.18;;;9.50;46.00;;;;;;4942823;28;20071;-63
2022/03/11 12:06:52;;;;;;;9.50;6.82;;;9.60;44.70;;;;;;4941158;28;20035;-66
2022/03/11 12:09:45;;;;;;;;;;;;;;;;;;;;;
2022/03/11 12:15:01;;;;;;;15.02;7.38;;;9.80;45.40;;;;;;4939000;28;20042;-66
2022/03/11 12:17:45;;;;;;;11.40;7.35;;;9.90;45.40;;;;;;4939211;28;20035;-66
2022/03/11 12:20:32;;;;;;;11.98;7.53;;;10.00;45.00;;;;;;4940845;28;20040;-66
2022/03/11 12:23:06;;;;;;;12.07;7.68;;;10.10;44.60;;;;;;4938494;28;20072;-65
2022/03/11 12:25:39;;;;;;;12.32;7.78;;;10.20;44.90;;;;;;4937927;28;20175;-66
2022/03/11 12:28:18;;;;;;;14.88;7.55;;;10.30;44.80;;;;;;4937378;28;20032;-66
2022/03/11 12:30:46;;;;;;;11.77;7.68;;;10.30;44.80;;;;;;4939086;28;20042;-66
2022/03/11 12:33:15;;;;;;;13.75;7.95;;;10.40;44.70;;;;;;4940596;28;20090;-67
2022/03/11 12:35:42;;;;;;;10.82;7.30;;;10.50;44.60;;;;;;4937361;28;20233;-66
2022/03/11 12:38:19;;;;;;;13.38;7.15;;;10.50;44.50;;;;;;4938997;28;20039;-66
2022/03/11 12:40:46;;;;;;;11.95;7.28;;;10.60;44.30;;;;;;4939001;28;20042;-66
2022/03/11 12:43:13;;;;;;;11.73;7.72;;;10.70;44.60;;;;;;4939190;28;20542;-65
2022/03/11 12:45:43;;;;;;;12.77;7.63;;;10.80;44.40;;;;;;4938728;28;20039;-66